sensor_id;sensor_type;location;lat;lon;timestamp;P1;durP1;ratioP1;P2;durP2;ratioP2
9739;SDS011;4909;42.680;26.324;2022-08-07T00:02:22;4.37;;;2.57;;
9739;SDS011;4909;42.680;26.324;2022-08-07T00:04:49;3.83;;;2.30;;
9739;SDS011;4909;42.680;26.324;2022-08-07T00:07:16;4.10;;;2.57;;
9739;SDS011;4909;42.680;26.324;2022-08-07T00:09:43;5.47;;;2.63;;
9739;SDS011;4909;42.680;26.324;2022-08-07T00:12:10;5.93;;;2.87;;
9739;SDS011;4909;42.680;26.324;2022-08-07T00:14:37;4.73;;;2.47;;
9739;SDS011;4909;42.680;26.324;2022-08-07T00:17:05;5.33;;;2.53;;
9739;SDS011;4909;42.680;26.324;2022-08-07T00:19:32;4.30;;;2.53;;
9739;SDS011;4909;42.680;26.324;2022-08-07T00:21:59;6.73;;;3.00;;
9739;SDS011;4909;42.680;26.324;2022-08-07T00:24:26;4.30;;;2.37;;
9739;SDS011;4909;42.680;26.324;2022-08-07T00:26:53;4.13;;;2.37;;
9739;SDS011;4909;42.680;26.324;2022-08-07T00:29:20;4.80;;;2.67;;
9739;SDS011;4909;42.680;26.324;2022-08-07T00:31:50;4.00;;;2.47;;
9739;SDS011;4909;42.680;26.324;2022-08-07T00:34:19;2.90;;;1.77;;
9739;SDS011;4909;42.680;26.324;2022-08-07T00:36:46;5.93;;;2.80;;
9739;SDS011;4909;42.680;26.324;2022-08-07T00:39:13;4.83;;;2.50;;
9739;SDS011;4909;42.680;26.324;2022-08-07T00:41:45;3.80;;;2.33;;
9739;SDS011;4909;42.680;26.324;2022-08-07T00:44:13;4.83;;;2.67;;
9739;SDS011;4909;42.680;26.324;2022-08-07T00:46:40;4.20;;;2.37;;
9739;SDS011;4909;42.680;26.324;2022-08-07T00:49:07;5.07;;;2.70;;
9739;SDS011;4909;42.680;26.324;2022-08-07T00:51:36;2.77;;;2.17;;
9739;SDS011;4909;42.680;26.324;2022-08-07T00:54:03;5.47;;;2.73;;
9739;SDS011;4909;42.680;26.324;2022-08-07T00:56:31;6.77;;;3.33;;
9739;SDS011;4909;42.680;26.324;2022-08-07T00:58:59;5.60;;;2.80;;
9739;SDS011;4909;42.680;26.324;2022-08-07T01:01:26;4.80;;;2.57;;
9739;SDS011;4909;42.680;26.324;2022-08-07T01:03:54;5.53;;;3.10;;
9739;SDS011;4909;42.680;26.324;2022-08-07T01:06:21;5.20;;;2.87;;
9739;SDS011;4909;42.680;26.324;2022-08-07T01:08:49;5.90;;;3.00;;
9739;SDS011;4909;42.680;26.324;2022-08-07T01:11:16;5.70;;;2.93;;
9739;SDS011;4909;42.680;26.324;2022-08-07T01:13:44;6.10;;;3.00;;
9739;SDS011;4909;42.680;26.324;2022-08-07T01:16:11;5.33;;;2.97;;
9739;SDS011;4909;42.680;26.324;2022-08-07T01:18:39;5.23;;;2.83;;
9739;SDS011;4909;42.680;26.324;2022-08-07T01:21:11;4.60;;;3.00;;
9739;SDS011;4909;42.680;26.324;2022-08-07T01:23:40;3.73;;;2.70;;
9739;SDS011;4909;42.680;26.324;2022-08-07T01:26:09;3.57;;;2.37;;
9739;SDS011;4909;42.680;26.324;2022-08-07T01:28:37;4.10;;;2.60;;
9739;SDS011;4909;42.680;26.324;2022-08-07T01:31:05;2.57;;;2.30;;
9739;SDS011;4909;42.680;26.324;2022-08-07T01:33:32;3.43;;;2.53;;
9739;SDS011;4909;42.680;26.324;2022-08-07T01:35:59;7.40;;;3.50;;
9739;SDS011;4909;42.680;26.324;2022-08-07T01:38:28;3.57;;;2.57;;
9739;SDS011;4909;42.680;26.324;2022-08-07T01:40:57;4.27;;;2.43;;
9739;SDS011;4909;42.680;26.324;2022-08-07T01:43:25;5.07;;;3.07;;
9739;SDS011;4909;42.680;26.324;2022-08-07T01:45:53;4.17;;;2.70;;
9739;SDS011;4909;42.680;26.324;2022-08-07T01:48:20;2.20;;;2.03;;
9739;SDS011;4909;42.680;26.324;2022-08-07T01:50:49;3.53;;;2.47;;
9739;SDS011;4909;42.680;26.324;2022-08-07T01:53:20;3.93;;;2.50;;
9739;SDS011;4909;42.680;26.324;2022-08-07T01:55:50;3.80;;;2.67;;
9739;SDS011;4909;42.680;26.324;2022-08-07T01:58:23;4.53;;;2.70;;
9739;SDS011;4909;42.680;26.324;2022-08-07T02:00:57;7.73;;;3.03;;
9739;SDS011;4909;42.680;26.324;2022-08-07T02:03:27;2.00;;;1.80;;
9739;SDS011;4909;42.680;26.324;2022-08-07T02:05:59;4.53;;;2.77;;
9739;SDS011;4909;42.680;26.324;2022-08-07T02:08:31;3.60;;;2.43;;
9739;SDS011;4909;42.680;26.324;2022-08-07T02:11:06;4.97;;;2.70;;
9739;SDS011;4909;42.680;26.324;2022-08-07T02:13:35;3.93;;;2.30;;
9739;SDS011;4909;42.680;26.324;2022-08-07T02:16:04;5.40;;;2.73;;
9739;SDS011;4909;42.680;26.324;2022-08-07T02:18:35;4.40;;;2.43;;
9739;SDS011;4909;42.680;26.324;2022-08-07T02:21:04;4.83;;;2.70;;
9739;SDS011;4909;42.680;26.324;2022-08-07T02:23:34;5.13;;;2.67;;
9739;SDS011;4909;42.680;26.324;2022-08-07T02:26:03;2.83;;;2.07;;
9739;SDS011;4909;42.680;26.324;2022-08-07T02:28:33;3.80;;;2.33;;
9739;SDS011;4909;42.680;26.324;2022-08-07T02:31:03;4.10;;;2.40;;
9739;SDS011;4909;42.680;26.324;2022-08-07T02:33:32;4.77;;;2.40;;
9739;SDS011;4909;42.680;26.324;2022-08-07T02:36:00;3.83;;;2.30;;
9739;SDS011;4909;42.680;26.324;2022-08-07T02:38:28;4.23;;;2.47;;
9739;SDS011;4909;42.680;26.324;2022-08-07T02:41:00;3.63;;;2.10;;
9739;SDS011;4909;42.680;26.324;2022-08-07T02:43:30;4.83;;;2.40;;
9739;SDS011;4909;42.680;26.324;2022-08-07T02:45:58;3.43;;;2.27;;
9739;SDS011;4909;42.680;26.324;2022-08-07T02:48:27;4.50;;;2.50;;
9739;SDS011;4909;42.680;26.324;2022-08-07T02:50:54;3.23;;;2.17;;
9739;SDS011;4909;42.680;26.324;2022-08-07T02:53:25;3.47;;;2.13;;
9739;SDS011;4909;42.680;26.324;2022-08-07T02:55:56;4.40;;;2.50;;
9739;SDS011;4909;42.680;26.324;2022-08-07T02:58:26;4.83;;;2.60;;
9739;SDS011;4909;42.680;26.324;2022-08-07T03:00:56;4.77;;;2.43;;
9739;SDS011;4909;42.680;26.324;2022-08-07T03:03:26;4.20;;;2.27;;
9739;SDS011;4909;42.680;26.324;2022-08-07T03:05:55;5.27;;;2.47;;
9739;SDS011;4909;42.680;26.324;2022-08-07T03:08:23;3.33;;;2.13;;
9739;SDS011;4909;42.680;26.324;2022-08-07T03:10:50;4.80;;;2.27;;
9739;SDS011;4909;42.680;26.324;2022-08-07T03:13:17;5.73;;;2.43;;
9739;SDS011;4909;42.680;26.324;2022-08-07T03:15:44;3.60;;;1.97;;
9739;SDS011;4909;42.680;26.324;2022-08-07T03:18:13;6.20;;;2.70;;
9739;SDS011;4909;42.680;26.324;2022-08-07T03:20:41;5.03;;;2.30;;
9739;SDS011;4909;42.680;26.324;2022-08-07T03:23:08;4.83;;;2.30;;
9739;SDS011;4909;42.680;26.324;2022-08-07T03:25:36;4.97;;;2.30;;
9739;SDS011;4909;42.680;26.324;2022-08-07T03:28:06;3.53;;;2.07;;
9739;SDS011;4909;42.680;26.324;2022-08-07T03:30:37;3.23;;;1.97;;
9739;SDS011;4909;42.680;26.324;2022-08-07T03:33:05;3.10;;;2.00;;
9739;SDS011;4909;42.680;26.324;2022-08-07T03:35:36;4.00;;;2.60;;
9739;SDS011;4909;42.680;26.324;2022-08-07T03:38:06;3.00;;;2.00;;
9739;SDS011;4909;42.680;26.324;2022-08-07T03:40:35;2.77;;;1.83;;
9739;SDS011;4909;42.680;26.324;2022-08-07T03:43:02;4.60;;;2.13;;
9739;SDS011;4909;42.680;26.324;2022-08-07T03:45:30;4.97;;;2.43;;
9739;SDS011;4909;42.680;26.324;2022-08-07T03:47:57;4.53;;;2.33;;
9739;SDS011;4909;42.680;26.324;2022-08-07T03:50:25;4.17;;;2.17;;
9739;SDS011;4909;42.680;26.324;2022-08-07T03:52:56;4.40;;;2.13;;
9739;SDS011;4909;42.680;26.324;2022-08-07T03:55:24;4.73;;;2.47;;
9739;SDS011;4909;42.680;26.324;2022-08-07T03:57:52;3.90;;;2.17;;
9739;SDS011;4909;42.680;26.324;2022-08-07T04:00:19;5.53;;;2.30;;
9739;SDS011;4909;42.680;26.324;2022-08-07T04:02:46;3.53;;;2.10;;
9739;SDS011;4909;42.680;26.324;2022-08-07T04:05:13;4.73;;;2.23;;
9739;SDS011;4909;42.680;26.324;2022-08-07T04:07:43;4.50;;;2.20;;
9739;SDS011;4909;42.680;26.324;2022-08-07T04:10:12;5.40;;;2.47;;
9739;SDS011;4909;42.680;26.324;2022-08-07T04:12:39;3.93;;;2.23;;
9739;SDS011;4909;42.680;26.324;2022-08-07T04:15:08;3.17;;;2.00;;
9739;SDS011;4909;42.680;26.324;2022-08-07T04:17:35;5.43;;;2.60;;
9739;SDS011;4909;42.680;26.324;2022-08-07T04:20:03;4.60;;;2.33;;
9739;SDS011;4909;42.680;26.324;2022-08-07T04:22:34;5.70;;;2.63;;
9739;SDS011;4909;42.680;26.324;2022-08-07T04:25:02;4.50;;;2.33;;
9739;SDS011;4909;42.680;26.324;2022-08-07T04:27:31;4.27;;;2.23;;
9739;SDS011;4909;42.680;26.324;2022-08-07T04:29:59;3.80;;;2.00;;
9739;SDS011;4909;42.680;26.324;2022-08-07T04:32:26;2.80;;;1.67;;
9739;SDS011;4909;42.680;26.324;2022-08-07T04:34:53;4.37;;;2.23;;
9739;SDS011;4909;42.680;26.324;2022-08-07T04:37:21;4.30;;;2.33;;
9739;SDS011;4909;42.680;26.324;2022-08-07T04:39:48;3.20;;;1.83;;
9739;SDS011;4909;42.680;26.324;2022-08-07T04:42:15;2.90;;;1.97;;
9739;SDS011;4909;42.680;26.324;2022-08-07T04:44:43;4.93;;;2.50;;
9739;SDS011;4909;42.680;26.324;2022-08-07T04:47:12;3.90;;;2.10;;
9739;SDS011;4909;42.680;26.324;2022-08-07T04:49:45;4.20;;;2.23;;
9739;SDS011;4909;42.680;26.324;2022-08-07T04:52:20;4.80;;;2.53;;
9739;SDS011;4909;42.680;26.324;2022-08-07T04:54:54;3.63;;;2.30;;
9739;SDS011;4909;42.680;26.324;2022-08-07T04:57:28;3.90;;;2.27;;
9739;SDS011;4909;42.680;26.324;2022-08-07T05:00:03;3.73;;;2.23;;
9739;SDS011;4909;42.680;26.324;2022-08-07T05:02:34;3.23;;;2.47;;
9739;SDS011;4909;42.680;26.324;2022-08-07T05:05:12;3.07;;;2.23;;
9739;SDS011;4909;42.680;26.324;2022-08-07T05:07:48;2.07;;;1.97;;
9739;SDS011;4909;42.680;26.324;2022-08-07T05:10:22;4.40;;;2.70;;
9739;SDS011;4909;42.680;26.324;2022-08-07T05:12:54;4.97;;;2.60;;
9739;SDS011;4909;42.680;26.324;2022-08-07T05:15:26;5.20;;;2.83;;
9739;SDS011;4909;42.680;26.324;2022-08-07T05:18:01;5.23;;;2.50;;
9739;SDS011;4909;42.680;26.324;2022-08-07T05:20:32;3.87;;;2.20;;
9739;SDS011;4909;42.680;26.324;2022-08-07T05:23:06;5.83;;;2.77;;
9739;SDS011;4909;42.680;26.324;2022-08-07T05:25:36;2.20;;;1.73;;
9739;SDS011;4909;42.680;26.324;2022-08-07T05:28:05;3.57;;;2.07;;
9739;SDS011;4909;42.680;26.324;2022-08-07T05:30:35;3.70;;;2.23;;
9739;SDS011;4909;42.680;26.324;2022-08-07T05:33:04;3.20;;;2.13;;
9739;SDS011;4909;42.680;26.324;2022-08-07T05:35:31;4.63;;;2.37;;
9739;SDS011;4909;42.680;26.324;2022-08-07T05:38:00;4.00;;;2.13;;
9739;SDS011;4909;42.680;26.324;2022-08-07T05:40:30;5.30;;;2.70;;
9739;SDS011;4909;42.680;26.324;2022-08-07T05:42:58;5.97;;;2.90;;
9739;SDS011;4909;42.680;26.324;2022-08-07T05:45:25;5.30;;;2.77;;
9739;SDS011;4909;42.680;26.324;2022-08-07T05:47:55;5.80;;;2.73;;
9739;SDS011;4909;42.680;26.324;2022-08-07T05:50:23;6.77;;;3.17;;
9739;SDS011;4909;42.680;26.324;2022-08-07T05:52:51;4.00;;;2.50;;
9739;SDS011;4909;42.680;26.324;2022-08-07T05:55:18;3.63;;;2.50;;
9739;SDS011;4909;42.680;26.324;2022-08-07T05:57:44;4.67;;;2.40;;
9739;SDS011;4909;42.680;26.324;2022-08-07T06:00:13;3.17;;;2.27;;
9739;SDS011;4909;42.680;26.324;2022-08-07T06:02:40;4.10;;;2.40;;
9739;SDS011;4909;42.680;26.324;2022-08-07T06:05:14;5.30;;;2.63;;
9739;SDS011;4909;42.680;26.324;2022-08-07T06:07:41;2.73;;;2.27;;
9739;SDS011;4909;42.680;26.324;2022-08-07T06:10:09;3.77;;;2.33;;
9739;SDS011;4909;42.680;26.324;2022-08-07T06:12:37;5.03;;;3.17;;
9739;SDS011;4909;42.680;26.324;2022-08-07T06:15:04;2.57;;;2.27;;
9739;SDS011;4909;42.680;26.324;2022-08-07T06:17:34;6.93;;;3.13;;
9739;SDS011;4909;42.680;26.324;2022-08-07T06:20:01;3.97;;;2.70;;
9739;SDS011;4909;42.680;26.324;2022-08-07T06:22:31;3.07;;;2.37;;
9739;SDS011;4909;42.680;26.324;2022-08-07T06:24:59;3.27;;;2.63;;
9739;SDS011;4909;42.680;26.324;2022-08-07T06:27:26;6.23;;;3.40;;
9739;SDS011;4909;42.680;26.324;2022-08-07T06:29:53;7.07;;;3.47;;
9739;SDS011;4909;42.680;26.324;2022-08-07T06:32:20;3.50;;;2.73;;
9739;SDS011;4909;42.680;26.324;2022-08-07T06:34:47;3.93;;;3.00;;
9739;SDS011;4909;42.680;26.324;2022-08-07T06:37:14;3.50;;;3.10;;
9739;SDS011;4909;42.680;26.324;2022-08-07T06:39:42;3.83;;;2.87;;
9739;SDS011;4909;42.680;26.324;2022-08-07T06:42:10;2.57;;;2.33;;
9739;SDS011;4909;42.680;26.324;2022-08-07T06:44:42;4.93;;;2.77;;
9739;SDS011;4909;42.680;26.324;2022-08-07T06:47:11;3.40;;;2.47;;
9739;SDS011;4909;42.680;26.324;2022-08-07T06:49:38;3.37;;;2.50;;
9739;SDS011;4909;42.680;26.324;2022-08-07T06:52:06;9.10;;;4.03;;
9739;SDS011;4909;42.680;26.324;2022-08-07T06:54:35;3.07;;;2.27;;
9739;SDS011;4909;42.680;26.324;2022-08-07T06:57:04;3.80;;;2.07;;
9739;SDS011;4909;42.680;26.324;2022-08-07T06:59:34;3.33;;;2.13;;
9739;SDS011;4909;42.680;26.324;2022-08-07T07:02:05;4.33;;;2.30;;
9739;SDS011;4909;42.680;26.324;2022-08-07T07:04:34;4.10;;;2.47;;
9739;SDS011;4909;42.680;26.324;2022-08-07T07:07:03;2.80;;;2.43;;
9739;SDS011;4909;42.680;26.324;2022-08-07T07:09:31;2.97;;;2.77;;
9739;SDS011;4909;42.680;26.324;2022-08-07T07:12:04;4.33;;;3.30;;
9739;SDS011;4909;42.680;26.324;2022-08-07T07:14:44;3.90;;;3.50;;
9739;SDS011;4909;42.680;26.324;2022-08-07T07:17:17;3.57;;;3.17;;
9739;SDS011;4909;42.680;26.324;2022-08-07T07:19:49;4.53;;;3.43;;
9739;SDS011;4909;42.680;26.324;2022-08-07T07:22:21;4.43;;;3.47;;
9739;SDS011;4909;42.680;26.324;2022-08-07T07:24:50;5.20;;;4.07;;
9739;SDS011;4909;42.680;26.324;2022-08-07T07:27:19;6.73;;;4.37;;
9739;SDS011;4909;42.680;26.324;2022-08-07T07:29:50;4.03;;;3.53;;
9739;SDS011;4909;42.680;26.324;2022-08-07T07:32:21;4.00;;;3.57;;
9739;SDS011;4909;42.680;26.324;2022-08-07T07:34:50;5.40;;;4.37;;
9739;SDS011;4909;42.680;26.324;2022-08-07T07:37:21;5.07;;;4.30;;
9739;SDS011;4909;42.680;26.324;2022-08-07T07:39:51;4.37;;;3.97;;
9739;SDS011;4909;42.680;26.324;2022-08-07T07:42:23;5.50;;;3.67;;
9739;SDS011;4909;42.680;26.324;2022-08-07T07:44:51;5.20;;;3.87;;
9739;SDS011;4909;42.680;26.324;2022-08-07T07:47:20;4.63;;;4.00;;
9739;SDS011;4909;42.680;26.324;2022-08-07T07:49:50;3.80;;;3.40;;
9739;SDS011;4909;42.680;26.324;2022-08-07T07:52:19;3.83;;;3.50;;
9739;SDS011;4909;42.680;26.324;2022-08-07T07:54:47;12.53;;;5.90;;
9739;SDS011;4909;42.680;26.324;2022-08-07T07:57:15;5.30;;;4.37;;
9739;SDS011;4909;42.680;26.324;2022-08-07T07:59:47;4.80;;;4.37;;
9739;SDS011;4909;42.680;26.324;2022-08-07T08:02:15;7.43;;;5.13;;
9739;SDS011;4909;42.680;26.324;2022-08-07T08:04:45;5.37;;;4.27;;
9739;SDS011;4909;42.680;26.324;2022-08-07T08:07:12;4.00;;;3.63;;
9739;SDS011;4909;42.680;26.324;2022-08-07T08:09:40;5.43;;;4.90;;
9739;SDS011;4909;42.680;26.324;2022-08-07T08:12:09;6.60;;;5.03;;
9739;SDS011;4909;42.680;26.324;2022-08-07T08:14:37;5.43;;;4.93;;
9739;SDS011;4909;42.680;26.324;2022-08-07T08:17:06;5.20;;;4.80;;
9739;SDS011;4909;42.680;26.324;2022-08-07T08:19:34;5.27;;;4.77;;
9739;SDS011;4909;42.680;26.324;2022-08-07T08:22:03;5.47;;;5.00;;
9739;SDS011;4909;42.680;26.324;2022-08-07T08:24:48;4.73;;;4.33;;
9739;SDS011;4909;42.680;26.324;2022-08-07T08:27:36;5.60;;;5.10;;
9739;SDS011;4909;42.680;26.324;2022-08-07T08:30:06;5.80;;;4.83;;
9739;SDS011;4909;42.680;26.324;2022-08-07T08:32:37;5.60;;;4.57;;
9739;SDS011;4909;42.680;26.324;2022-08-07T08:35:09;5.03;;;4.50;;
9739;SDS011;4909;42.680;26.324;2022-08-07T08:37:39;5.10;;;4.63;;
9739;SDS011;4909;42.680;26.324;2022-08-07T08:40:13;4.63;;;4.27;;
9739;SDS011;4909;42.680;26.324;2022-08-07T08:42:45;3.60;;;3.27;;
9739;SDS011;4909;42.680;26.324;2022-08-07T08:45:20;3.93;;;3.53;;
9739;SDS011;4909;42.680;26.324;2022-08-07T08:48:02;5.33;;;5.00;;
9739;SDS011;4909;42.680;26.324;2022-08-07T08:50:36;5.77;;;4.53;;
9739;SDS011;4909;42.680;26.324;2022-08-07T08:53:10;7.07;;;6.23;;
9739;SDS011;4909;42.680;26.324;2022-08-07T08:55:43;6.00;;;5.50;;
9739;SDS011;4909;42.680;26.324;2022-08-07T08:58:16;7.27;;;6.50;;
9739;SDS011;4909;42.680;26.324;2022-08-07T09:00:53;5.63;;;5.27;;
9739;SDS011;4909;42.680;26.324;2022-08-07T09:03:27;5.90;;;5.40;;
9739;SDS011;4909;42.680;26.324;2022-08-07T09:06:05;6.17;;;5.77;;
9739;SDS011;4909;42.680;26.324;2022-08-07T09:08:38;6.47;;;5.93;;
9739;SDS011;4909;42.680;26.324;2022-08-07T09:11:21;6.33;;;5.83;;
9739;SDS011;4909;42.680;26.324;2022-08-07T09:14:00;7.00;;;6.50;;
9739;SDS011;4909;42.680;26.324;2022-08-07T09:19:47;7.67;;;6.93;;
9739;SDS011;4909;42.680;26.324;2022-08-07T09:22:28;7.53;;;6.83;;
9739;SDS011;4909;42.680;26.324;2022-08-07T09:25:08;6.43;;;5.37;;
9739;SDS011;4909;42.680;26.324;2022-08-07T09:27:40;8.40;;;7.70;;
9739;SDS011;4909;42.680;26.324;2022-08-07T09:30:11;7.50;;;6.80;;
9739;SDS011;4909;42.680;26.324;2022-08-07T09:35:39;6.83;;;6.23;;
9739;SDS011;4909;42.680;26.324;2022-08-07T09:38:14;9.77;;;8.23;;
9739;SDS011;4909;42.680;26.324;2022-08-07T09:40:56;7.33;;;6.70;;
9739;SDS011;4909;42.680;26.324;2022-08-07T09:43:35;7.20;;;6.60;;
9739;SDS011;4909;42.680;26.324;2022-08-07T09:46:16;8.00;;;7.03;;
9739;SDS011;4909;42.680;26.324;2022-08-07T09:48:53;6.73;;;6.17;;
9739;SDS011;4909;42.680;26.324;2022-08-07T09:51:39;7.10;;;6.43;;
9739;SDS011;4909;42.680;26.324;2022-08-07T09:54:18;6.93;;;6.30;;
9739;SDS011;4909;42.680;26.324;2022-08-07T09:57:15;8.10;;;7.47;;
9739;SDS011;4909;42.680;26.324;2022-08-07T10:00:07;7.90;;;7.27;;
9739;SDS011;4909;42.680;26.324;2022-08-07T10:02:47;7.90;;;7.30;;
9739;SDS011;4909;42.680;26.324;2022-08-07T10:05:34;7.77;;;6.83;;
9739;SDS011;4909;42.680;26.324;2022-08-07T10:08:25;7.13;;;6.50;;
9739;SDS011;4909;42.680;26.324;2022-08-07T10:11:19;7.93;;;7.27;;
9739;SDS011;4909;42.680;26.324;2022-08-07T10:14:01;7.43;;;6.90;;
9739;SDS011;4909;42.680;26.324;2022-08-07T10:16:41;8.50;;;7.80;;
9739;SDS011;4909;42.680;26.324;2022-08-07T10:19:29;9.30;;;8.37;;
9739;SDS011;4909;42.680;26.324;2022-08-07T10:22:09;9.83;;;8.90;;
9739;SDS011;4909;42.680;26.324;2022-08-07T10:24:58;9.47;;;8.67;;
9739;SDS011;4909;42.680;26.324;2022-08-07T10:27:59;8.33;;;7.67;;
9739;SDS011;4909;42.680;26.324;2022-08-07T10:30:42;8.70;;;7.97;;
9739;SDS011;4909;42.680;26.324;2022-08-07T10:33:34;9.00;;;8.20;;
9739;SDS011;4909;42.680;26.324;2022-08-07T10:36:22;8.23;;;7.70;;
9739;SDS011;4909;42.680;26.324;2022-08-07T10:38:57;9.40;;;8.67;;
9739;SDS011;4909;42.680;26.324;2022-08-07T10:41:32;10.17;;;9.47;;
9739;SDS011;4909;42.680;26.324;2022-08-07T10:44:05;11.57;;;10.70;;
9739;SDS011;4909;42.680;26.324;2022-08-07T10:46:38;10.67;;;9.73;;
9739;SDS011;4909;42.680;26.324;2022-08-07T10:49:10;10.77;;;9.93;;
9739;SDS011;4909;42.680;26.324;2022-08-07T10:51:47;9.27;;;8.60;;
9739;SDS011;4909;42.680;26.324;2022-08-07T10:54:23;9.43;;;8.93;;
9739;SDS011;4909;42.680;26.324;2022-08-07T10:57:05;9.03;;;8.60;;
9739;SDS011;4909;42.680;26.324;2022-08-07T10:59:52;11.13;;;10.23;;
9739;SDS011;4909;42.680;26.324;2022-08-07T11:02:31;10.40;;;9.63;;
9739;SDS011;4909;42.680;26.324;2022-08-07T11:05:09;12.00;;;11.33;;
9739;SDS011;4909;42.680;26.324;2022-08-07T11:07:44;13.87;;;13.07;;
9739;SDS011;4909;42.680;26.324;2022-08-07T11:10:23;14.47;;;13.50;;
9739;SDS011;4909;42.680;26.324;2022-08-07T11:12:57;15.07;;;13.93;;
9739;SDS011;4909;42.680;26.324;2022-08-07T11:15:30;17.50;;;16.57;;
9739;SDS011;4909;42.680;26.324;2022-08-07T11:18:02;15.37;;;14.47;;
9739;SDS011;4909;42.680;26.324;2022-08-07T11:20:36;15.00;;;14.27;;
9739;SDS011;4909;42.680;26.324;2022-08-07T11:23:13;13.40;;;12.40;;
9739;SDS011;4909;42.680;26.324;2022-08-07T11:25:47;26.93;;;25.70;;
9739;SDS011;4909;42.680;26.324;2022-08-07T11:28:22;24.63;;;23.37;;
9739;SDS011;4909;42.680;26.324;2022-08-07T11:30:55;27.83;;;26.70;;
9739;SDS011;4909;42.680;26.324;2022-08-07T11:33:28;24.77;;;23.60;;
9739;SDS011;4909;42.680;26.324;2022-08-07T11:36:10;18.33;;;17.30;;
9739;SDS011;4909;42.680;26.324;2022-08-07T11:38:45;13.87;;;13.07;;
9739;SDS011;4909;42.680;26.324;2022-08-07T11:41:21;19.77;;;18.67;;
9739;SDS011;4909;42.680;26.324;2022-08-07T11:43:54;13.27;;;12.57;;
9739;SDS011;4909;42.680;26.324;2022-08-07T11:46:42;13.10;;;12.47;;
9739;SDS011;4909;42.680;26.324;2022-08-07T11:49:28;17.90;;;16.97;;
9739;SDS011;4909;42.680;26.324;2022-08-07T11:52:21;12.40;;;11.73;;
9739;SDS011;4909;42.680;26.324;2022-08-07T11:55:02;15.27;;;14.47;;
9739;SDS011;4909;42.680;26.324;2022-08-07T11:57:36;14.77;;;13.80;;
9739;SDS011;4909;42.680;26.324;2022-08-07T12:00:12;14.00;;;12.90;;
9739;SDS011;4909;42.680;26.324;2022-08-07T12:05:54;8.57;;;7.90;;
9739;SDS011;4909;42.680;26.324;2022-08-07T12:08:29;7.67;;;7.17;;
9739;SDS011;4909;42.680;26.324;2022-08-07T12:11:05;7.07;;;6.47;;
9739;SDS011;4909;42.680;26.324;2022-08-07T12:13:38;7.40;;;6.73;;
9739;SDS011;4909;42.680;26.324;2022-08-07T12:16:11;6.90;;;6.20;;
9739;SDS011;4909;42.680;26.324;2022-08-07T12:18:45;8.03;;;7.33;;
9739;SDS011;4909;42.680;26.324;2022-08-07T12:21:19;10.33;;;9.37;;
9739;SDS011;4909;42.680;26.324;2022-08-07T12:23:56;10.30;;;9.60;;
9739;SDS011;4909;42.680;26.324;2022-08-07T12:26:30;8.40;;;7.83;;
9739;SDS011;4909;42.680;26.324;2022-08-07T12:29:06;7.80;;;7.30;;
9739;SDS011;4909;42.680;26.324;2022-08-07T12:31:40;10.33;;;9.17;;
9739;SDS011;4909;42.680;26.324;2022-08-07T12:34:13;9.77;;;9.10;;
9739;SDS011;4909;42.680;26.324;2022-08-07T12:36:43;10.13;;;9.40;;
9739;SDS011;4909;42.680;26.324;2022-08-07T12:39:11;11.53;;;10.60;;
9739;SDS011;4909;42.680;26.324;2022-08-07T12:41:40;9.13;;;8.43;;
9739;SDS011;4909;42.680;26.324;2022-08-07T12:44:09;9.87;;;9.10;;
9739;SDS011;4909;42.680;26.324;2022-08-07T12:46:56;12.23;;;11.33;;
9739;SDS011;4909;42.680;26.324;2022-08-07T12:49:32;7.03;;;6.50;;
9739;SDS011;4909;42.680;26.324;2022-08-07T12:52:07;9.73;;;9.03;;
9739;SDS011;4909;42.680;26.324;2022-08-07T12:54:39;11.30;;;10.47;;
9739;SDS011;4909;42.680;26.324;2022-08-07T12:57:12;14.20;;;13.33;;
9739;SDS011;4909;42.680;26.324;2022-08-07T12:59:42;13.43;;;12.53;;
9739;SDS011;4909;42.680;26.324;2022-08-07T13:02:23;31.53;;;30.07;;
9739;SDS011;4909;42.680;26.324;2022-08-07T13:05:02;11.00;;;8.67;;
9739;SDS011;4909;42.680;26.324;2022-08-07T13:07:49;7.53;;;7.03;;
9739;SDS011;4909;42.680;26.324;2022-08-07T13:10:42;9.43;;;8.80;;
9739;SDS011;4909;42.680;26.324;2022-08-07T13:13:26;11.03;;;10.27;;
9739;SDS011;4909;42.680;26.324;2022-08-07T13:16:01;16.87;;;15.97;;
9739;SDS011;4909;42.680;26.324;2022-08-07T13:18:38;9.63;;;9.03;;
9739;SDS011;4909;42.680;26.324;2022-08-07T13:21:16;6.27;;;5.67;;
9739;SDS011;4909;42.680;26.324;2022-08-07T13:23:47;6.40;;;5.87;;
9739;SDS011;4909;42.680;26.324;2022-08-07T13:26:21;7.13;;;6.67;;
9739;SDS011;4909;42.680;26.324;2022-08-07T13:28:56;8.53;;;7.87;;
9739;SDS011;4909;42.680;26.324;2022-08-07T13:31:30;7.37;;;6.73;;
9739;SDS011;4909;42.680;26.324;2022-08-07T13:34:05;9.90;;;9.10;;
9739;SDS011;4909;42.680;26.324;2022-08-07T13:36:42;7.10;;;6.50;;
9739;SDS011;4909;42.680;26.324;2022-08-07T13:39:16;6.33;;;5.80;;
9739;SDS011;4909;42.680;26.324;2022-08-07T13:41:50;5.63;;;5.10;;
9739;SDS011;4909;42.680;26.324;2022-08-07T13:44:20;4.83;;;4.57;;
9739;SDS011;4909;42.680;26.324;2022-08-07T13:46:50;8.87;;;6.60;;
9739;SDS011;4909;42.680;26.324;2022-08-07T13:49:22;7.03;;;6.03;;
9739;SDS011;4909;42.680;26.324;2022-08-07T13:51:50;7.47;;;6.70;;
9739;SDS011;4909;42.680;26.324;2022-08-07T13:54:20;5.97;;;5.13;;
9739;SDS011;4909;42.680;26.324;2022-08-07T13:56:54;7.00;;;5.47;;
9739;SDS011;4909;42.680;26.324;2022-08-07T13:59:24;6.00;;;5.40;;
9739;SDS011;4909;42.680;26.324;2022-08-07T14:01:55;7.63;;;5.70;;
9739;SDS011;4909;42.680;26.324;2022-08-07T14:04:33;5.53;;;5.07;;
9739;SDS011;4909;42.680;26.324;2022-08-07T14:07:10;5.27;;;4.77;;
9739;SDS011;4909;42.680;26.324;2022-08-07T14:09:38;5.50;;;5.03;;
9739;SDS011;4909;42.680;26.324;2022-08-07T14:12:08;6.80;;;5.30;;
9739;SDS011;4909;42.680;26.324;2022-08-07T14:14:47;6.07;;;5.67;;
9739;SDS011;4909;42.680;26.324;2022-08-07T14:17:18;5.80;;;5.30;;
9739;SDS011;4909;42.680;26.324;2022-08-07T14:19:51;5.80;;;5.27;;
9739;SDS011;4909;42.680;26.324;2022-08-07T14:22:22;6.07;;;5.50;;
9739;SDS011;4909;42.680;26.324;2022-08-07T14:24:53;13.43;;;7.97;;
9739;SDS011;4909;42.680;26.324;2022-08-07T14:27:26;7.20;;;6.43;;
9739;SDS011;4909;42.680;26.324;2022-08-07T14:30:00;6.53;;;5.93;;
9739;SDS011;4909;42.680;26.324;2022-08-07T14:32:29;6.63;;;6.23;;
9739;SDS011;4909;42.680;26.324;2022-08-07T14:35:03;7.13;;;6.47;;
9739;SDS011;4909;42.680;26.324;2022-08-07T14:37:31;7.07;;;6.43;;
9739;SDS011;4909;42.680;26.324;2022-08-07T14:40:00;7.70;;;6.97;;
9739;SDS011;4909;42.680;26.324;2022-08-07T14:42:29;7.63;;;7.13;;
9739;SDS011;4909;42.680;26.324;2022-08-07T14:45:00;6.63;;;6.07;;
9739;SDS011;4909;42.680;26.324;2022-08-07T14:47:30;6.43;;;5.40;;
9739;SDS011;4909;42.680;26.324;2022-08-07T14:49:59;6.90;;;6.27;;
9739;SDS011;4909;42.680;26.324;2022-08-07T14:52:33;6.33;;;5.80;;
9739;SDS011;4909;42.680;26.324;2022-08-07T14:55:03;6.33;;;5.83;;
9739;SDS011;4909;42.680;26.324;2022-08-07T14:57:32;6.77;;;6.03;;
9739;SDS011;4909;42.680;26.324;2022-08-07T14:59:59;6.87;;;6.33;;
9739;SDS011;4909;42.680;26.324;2022-08-07T15:02:28;6.27;;;5.70;;
9739;SDS011;4909;42.680;26.324;2022-08-07T15:04:56;8.23;;;7.50;;
9739;SDS011;4909;42.680;26.324;2022-08-07T15:07:24;7.07;;;6.17;;
9739;SDS011;4909;42.680;26.324;2022-08-07T15:09:54;7.50;;;6.70;;
9739;SDS011;4909;42.680;26.324;2022-08-07T15:12:23;6.87;;;6.37;;
9739;SDS011;4909;42.680;26.324;2022-08-07T15:14:59;3.93;;;3.23;;
9739;SDS011;4909;42.680;26.324;2022-08-07T15:17:30;4.10;;;3.07;;
9739;SDS011;4909;42.680;26.324;2022-08-07T15:20:03;3.30;;;2.93;;
9739;SDS011;4909;42.680;26.324;2022-08-07T15:22:44;5.53;;;5.03;;
9739;SDS011;4909;42.680;26.324;2022-08-07T15:25:14;6.00;;;5.37;;
9739;SDS011;4909;42.680;26.324;2022-08-07T15:27:47;5.33;;;4.83;;
9739;SDS011;4909;42.680;26.324;2022-08-07T15:30:17;9.23;;;7.60;;
9739;SDS011;4909;42.680;26.324;2022-08-07T15:32:46;7.63;;;7.00;;
9739;SDS011;4909;42.680;26.324;2022-08-07T15:35:14;6.07;;;5.53;;
9739;SDS011;4909;42.680;26.324;2022-08-07T15:37:48;6.93;;;6.23;;